In Rescue
 
Open Full Screen Window  High Contrast Mode
Wind Gusting 00 knots
04
March 19, 2019 7:13 PM EDT
Weather Information
Wind Direction
  260 °
Wind Speed
  04 kt (5 mph)
Wind Gust
  00 kt (0 mph)
Altimeter
30.20 in
Visibility
10 SM
Temperature
03° C
37° F
Dewpoint
-04° C
25° F
Humidity
60%
Sky Condition
Clear
VFR

METAR KMGN 192313Z AUTO 26004KT 10SM CLR 03/M04 A3020 RMK AO2 T00361046

FAA Disclaimer: The data displayed is for advisory purposes only and is not to be used for flight planning or operations.